Time;durP1;ratioP1;P1;durP2;ratioP2;P2;SDS_P1;SDS_P2;PMS_P1;PMS_P2;Temp;Humidity;BMP_temperature;BMP_pressure;BME280_temperature;BME280_humidity;BME280_pressure;Samples;Min_cycle;Max_cycle;Signal;HPM_P1;HPM_P2
2023/11/16 00:00:12;;;;;;;;;;;;;;;;;;5012394;28;19914;-83
2023/11/16 00:02:38;;;;;;;;;;;;;;;;;;4996601;28;19914;-84
2023/11/16 00:05:05;;;;;;;;;;;;;;;;;;4963042;28;19941;-82
2023/11/16 00:07:33;;;;;;;;;;;;;;;;;;4979014;28;19898;-81
2023/11/16 00:09:58;;;;;;;;;;;;;;;;;;4978553;28;19918;-83
2023/11/16 00:12:55;;;;;;;;;;;;;;;;;;4978914;28;19962;-83
2023/11/16 00:15:30;;;;;;;;;;;;;;;;;;4991799;28;19898;-82
2023/11/16 00:18:04;;;;;;;;;;;;;;;;;;4978424;28;19937;-84
2023/11/16 00:20:32;;;;;;;;;;;;;;;;;;4962710;28;19907;-83
2023/11/16 00:22:58;;;;;;;;;;;;;;;;;;5012364;28;19910;-83
2023/11/16 00:25:33;;;;;;;;;;;;;;;;;;4964801;28;19944;-84
2023/11/16 00:28:05;;;;;;;;;;;;;;;;;;4996623;28;19930;-84
2023/11/16 00:30:36;;;;;;;;;;;;;;;;;;4996787;28;19922;-84
2023/11/16 00:33:20;;;;;;;;;;;;;;;;;;;;;
2023/11/16 00:35:49;;;;;;;;;;;;;;;;;;4981744;28;19973;-83
2023/11/16 00:38:15;;;;;;;;;;;;;;;;;;4981321;28;19906;-83
2023/11/16 00:40:42;;;;;;;;;;;;;;;;;;4981952;28;19918;-82
2023/11/16 00:43:10;;;;;;;;;;;;;;;;;;5001213;28;19914;-82
2023/11/16 00:45:37;;;;;;;;;;;;;;;;;;4985014;28;19922;-82
2023/11/16 00:48:11;;;;;;;;;;;;;;;;;;5001641;28;19929;-83
2023/11/16 00:50:39;;;;;;;;;;;;;;;;;;5001153;28;19934;-83
2023/11/16 00:53:13;;;;;;;;;;;;;;;;;;4985435;28;19929;-82
2023/11/16 00:55:43;;;;;;;;;;;;;;;;;;4981820;28;19972;-83
2023/11/16 00:58:15;;;;;;;;;;;;;;;;;;4996066;28;19921;-83
2023/11/16 01:00:42;;;;;;;;;;;;;;;;;;5013704;28;19914;-85
2023/11/16 01:03:11;;;;;;;;;;;;;;;;;;4998212;28;19910;-82
2023/11/16 01:05:38;;;;;;;;;;;;;;;;;;5000029;28;19941;-84
2023/11/16 01:08:09;;;;;;;;;;;;;;;;;;4981996;28;19957;-83
2023/11/16 01:10:38;;;;;;;;;;;;;;;;;;4998776;28;19918;-83
2023/11/16 01:13:07;;;;;;;;;;;;;;;;;;4982371;28;19902;-83
2023/11/16 01:15:38;;;;;;;;;;;;;;;;;;4999145;28;19941;-82
2023/11/16 01:18:10;;;;;;;;;;;;;;;;;;4998654;28;19914;-83
2023/11/16 01:20:45;;;;;;;;;;;;;;;;;;4983313;28;19927;-82
2023/11/16 01:23:16;;;;;;;;;;;;;;;;;;4998758;28;19921;-83
2023/11/16 01:25:51;;;;;;;;;;;;;;;;;;4982251;28;19914;-83
2023/11/16 01:28:17;;;;;;;;;;;;;;;;;;4981377;28;19918;-83
2023/11/16 01:30:42;;;;;;;;;;;;;;;;;;4980829;28;19921;-83
2023/11/16 01:33:09;;;;;;;;;;;;;;;;;;4980068;28;20000;-82
2023/11/16 01:35:39;;;;;;;;;;;;;;;;;;4978916;28;19937;-83
2023/11/16 01:38:06;;;;;;;;;;;;;;;;;;4980383;28;19951;-83
2023/11/16 01:40:40;;;;;;;;;;;;;;;;;;4995841;28;19914;-83
2023/11/16 01:43:08;;;;;;;;;;;;;;;;;;4988947;28;19922;-83
2023/11/16 01:45:34;;;;;;;;;;;;;;;;;;4989879;28;19910;-81
2023/11/16 01:48:03;;;;;;;;;;;;;;;;;;4973300;28;19914;-83
2023/11/16 01:50:32;;;;;;;;;;;;;;;;;;4972205;28;19914;-82
2023/11/16 01:53:09;;;;;;;;;;;;;;;;;;4970846;28;19918;-83
2023/11/16 01:55:37;;;;;;;;;;;;;;;;;;4987583;28;19915;-81
2023/11/16 01:58:07;;;;;;;;;;;;;;;;;;4989190;28;19914;-83
2023/11/16 02:00:36;;;;;;;;;;;;;;;;;;4972255;28;19914;-82
2023/11/16 02:03:09;;;;;;;;;;;;;;;;;;4972298;28;19926;-83
2023/11/16 02:05:35;;;;;;;;;;;;;;;;;;4988752;28;19925;-82
2023/11/16 02:08:01;;;;;;;;;;;;;;;;;;4987987;28;20349;-83
2023/11/16 02:10:30;;;;;;;;;;;;;;;;;;4971248;28;19910;-82
2023/11/16 02:12:56;;;;;;;;;;;;;;;;;;4988100;28;19914;-83
2023/11/16 02:15:21;;;;;;;;;;;;;;;;;;4972507;28;19965;-83
2023/11/16 02:17:47;;;;;;;;;;;;;;;;;;4974172;28;19914;-83
2023/11/16 02:20:16;;;;;;;;;;;;;;;;;;4974929;28;19918;-83
2023/11/16 02:22:42;;;;;;;;;;;;;;;;;;4972899;28;19914;-82
2023/11/16 02:25:11;;;;;;;;;;;;;;;;;;4988107;28;20005;-82
2023/11/16 02:27:37;;;;;;;;;;;;;;;;;;4973861;28;19921;-81
2023/11/16 02:30:06;;;;;;;;;;;;;;;;;;4987983;28;19950;-82
2023/11/16 02:32:34;;;;;;;;;;;;;;;;;;4971696;28;19910;-82
2023/11/16 02:35:02;;;;;;;;;;;;;;;;;;4986662;28;19918;-82
2023/11/16 02:37:33;;;;;;;;;;;;;;;;;;4986481;28;19914;-82
2023/11/16 02:40:04;;;;;;;;;;;;;;;;;;4972590;28;20012;-82
2023/11/16 02:42:31;;;;;;;;;;;;;;;;;;4986905;28;19914;-83
2023/11/16 02:44:57;;;;;;;;;;;;;;;;;;4970705;28;19918;-81
2023/11/16 02:47:30;;;;;;;;;;;;;;;;;;4986560;28;19918;-83
2023/11/16 02:50:05;;;;;;;;;;;;;;;;;;4985214;28;20345;-81
2023/11/16 02:52:33;;;;;;;;;;;;;;;;;;4987915;28;19990;-82
2023/11/16 02:55:02;;;;;;;;;;;;;;;;;;4972660;28;19949;-82
2023/11/16 02:57:29;;;;;;;;;;;;;;;;;;4979968;28;19910;-83
2023/11/16 02:59:56;;;;;;;;;;;;;;;;;;4979320;28;19898;-84
2023/11/16 03:02:24;;;;;;;;;;;;;;;;;;4996396;28;19915;-82
2023/11/16 03:04:54;;;;;;;;;;;;;;;;;;4979829;28;19921;-83
2023/11/16 03:07:22;;;;;;;;;;;;;;;;;;4977116;28;19929;-83
2023/11/16 03:09:52;;;;;;;;;;;;;;;;;;4978613;28;19914;-84
2023/11/16 03:12:21;;;;;;;;;;;;;;;;;;4977796;28;19906;-84
2023/11/16 03:14:47;;;;;;;;;;;;;;;;;;4977927;28;19914;-83
2023/11/16 03:17:16;;;;;;;;;;;;;;;;;;4993252;28;19925;-82
2023/11/16 03:19:55;;;;;;;;;;;;;;;;;;4993706;28;19918;-83
2023/11/16 03:22:21;;;;;;;;;;;;;;;;;;4975748;28;19914;-83
2023/11/16 03:24:50;;;;;;;;;;;;;;;;;;4978419;28;19898;-84
2023/11/16 03:27:15;;;;;;;;;;;;;;;;;;4978138;28;19915;-84
2023/11/16 03:29:47;;;;;;;;;;;;;;;;;;4977478;28;19941;-84
2023/11/16 03:32:13;;;;;;;;;;;;;;;;;;4993146;28;19942;-82
2023/11/16 03:34:44;;;;;;;;;;;;;;;;;;4992459;28;19930;-83
2023/11/16 03:37:19;;;;;;;;;;;;;;;;;;4992622;28;20168;-83
2023/11/16 03:39:55;;;;;;;;;;;;;;;;;;4991413;28;19914;-82
2023/11/16 03:42:26;;;;;;;;;;;;;;;;;;4989326;28;19925;-83
2023/11/16 03:44:55;;;;;;;;;;;;;;;;;;4972100;28;19918;-82
2023/11/16 03:47:24;;;;;;;;;;;;;;;;;;4971663;28;19969;-82
2023/11/16 03:49:58;;;;;;;;;;;;;;;;;;4955693;28;19918;-83
2023/11/16 03:52:25;;;;;;;;;;;;;;;;;;4968909;28;19928;-84
2023/11/16 03:54:57;;;;;;;;;;;;;;;;;;4970826;28;19937;-82
2023/11/16 03:57:23;;;;;;;;;;;;;;;;;;4983376;28;19968;-83
2023/11/16 03:59:49;;;;;;;;;;;;;;;;;;4969412;28;19917;-82
2023/11/16 04:02:17;;;;;;;;;;;;;;;;;;4972873;28;19914;-82
2023/11/16 04:04:49;;;;;;;;;;;;;;;;;;4971451;28;19919;-82
2023/11/16 04:07:24;;;;;;;;;;;;;;;;;;4986320;28;20351;-83
2023/11/16 04:09:54;;;;;;;;;;;;;;;;;;4988100;28;19925;-82
2023/11/16 04:12:23;;;;;;;;;;;;;;;;;;4972996;28;20012;-83
2023/11/16 04:14:49;;;;;;;;;;;;;;;;;;4971517;28;19917;-82
2023/11/16 04:17:22;;;;;;;;;;;;;;;;;;4973652;28;19914;-82
2023/11/16 04:19:51;;;;;;;;;;;;;;;;;;4988194;28;20415;-83
2023/11/16 04:22:21;;;;;;;;;;;;;;;;;;4973846;28;20017;-81
2023/11/16 04:24:54;;;;;;;;;;;;;;;;;;4975364;28;19914;-82
2023/11/16 04:27:26;;;;;;;;;;;;;;;;;;4959593;28;20020;-82
2023/11/16 04:29:52;;;;;;;;;;;;;;;;;;4974522;28;19945;-83
2023/11/16 04:32:23;;;;;;;;;;;;;;;;;;4957477;28;19910;-82
2023/11/16 04:34:57;;;;;;;;;;;;;;;;;;4988467;28;19914;-83
2023/11/16 04:37:26;;;;;;;;;;;;;;;;;;4972751;28;20008;-83
2023/11/16 04:39:53;;;;;;;;;;;;;;;;;;4987319;28;19914;-83
2023/11/16 04:42:19;;;;;;;;;;;;;;;;;;4971037;28;19914;-82
2023/11/16 04:44:48;;;;;;;;;;;;;;;;;;4972559;28;19961;-83
2023/11/16 04:47:25;;;;;;;;;;;;;;;;;;5003062;28;19930;-82
2023/11/16 04:49:52;;;;;;;;;;;;;;;;;;4970433;28;19918;-84
2023/11/16 04:52:23;;;;;;;;;;;;;;;;;;4969814;28;19961;-84
2023/11/16 04:55:17;;;;;;;;;;;;;;;;;;4986996;28;19929;-84
2023/11/16 04:57:49;;;;;;;;;;;;;;;;;;4974073;28;19925;-83
2023/11/16 05:00:18;;;;;;;;;;;;;;;;;;4972431;28;19919;-84
2023/11/16 05:02:48;;;;;;;;;;;;;;;;;;4986431;28;19921;-82
2023/11/16 05:05:16;;;;;;;;;;;;;;;;;;4969632;28;19918;-82
2023/11/16 05:07:43;;;;;;;;;;;;;;;;;;4970588;28;19926;-83
2023/11/16 05:10:11;;;;;;;;;;;;;;;;;;4970244;28;19918;-83
2023/11/16 05:12:39;;;;;;;;;;;;;;;;;;4970742;28;19985;-83
2023/11/16 05:15:06;;;;;;;;;;;;;;;;;;4969010;28;19957;-83
2023/11/16 05:17:32;;;;;;;;;;;;;;;;;;4970840;28;19911;-84
2023/11/16 05:19:59;;;;;;;;;;;;;;;;;;4983754;28;19920;-83
2023/11/16 05:22:24;;;;;;;;;;;;;;;;;;4968862;28;19957;-82
2023/11/16 05:24:53;;;;;;;;;;;;;;;;;;4968413;28;19915;-84
2023/11/16 05:27:27;;;;;;;;;;;;;;;;;;4971771;28;19934;-83
2023/11/16 05:29:54;;;;;;;;;;;;;;;;;;4973540;28;19941;-82
2023/11/16 05:32:19;;;;;;;;;;;;;;;;;;4975497;28;19910;-83
2023/11/16 05:34:46;;;;;;;;;;;;;;;;;;4994784;28;19918;-82
2023/11/16 05:37:12;;;;;;;;;;;;;;;;;;4977734;28;19945;-83
2023/11/16 05:39:38;;;;;;;;;;;;;;;;;;4990274;28;19915;-83
2023/11/16 05:42:08;;;;;;;;;;;;;;;;;;4970475;28;19978;-83
2023/11/16 05:44:34;;;;;;;;;;;;;;;;;;4973561;28;19915;-83
2023/11/16 05:46:59;;;;;;;;;;;;;;;;;;4970346;28;19921;-83
2023/11/16 05:49:26;;;;;;;;;;;;;;;;;;4970798;28;19922;-81
2023/11/16 05:51:53;;;;;;;;;;;;;;;;;;4971038;28;19921;-83
2023/11/16 05:54:19;;;;;;;;;;;;;;;;;;4971204;28;19918;-82
2023/11/16 05:56:48;;;;;;;;;;;;;;;;;;4992045;28;19921;-81
2023/11/16 05:59:17;;;;;;;;;;;;;;;;;;4995553;28;19977;-82
2023/11/16 06:01:46;;;;;;;;;;;;;;;;;;4994924;28;19922;-84
2023/11/16 06:04:13;;;;;;;;;;;;;;;;;;4994688;28;20285;-83
2023/11/16 06:06:39;;;;;;;;;;;;;;;;;;4994500;28;19977;-83
2023/11/16 06:09:09;;;;;;;;;;;;;;;;;;4979000;28;19926;-83
2023/11/16 06:11:37;;;;;;;;;;;;;;;;;;4993638;28;19914;-83
2023/11/16 06:14:08;;;;;;;;;;;;;;;;;;4988945;28;19910;-82
2023/11/16 06:16:34;;;;;;;;;;;;;;;;;;4987837;28;19922;-83
2023/11/16 06:19:01;;;;;;;;;;;;;;;;;;4975572;28;20392;-82
2023/11/16 06:21:29;;;;;;;;;;;;;;;;;;4971540;28;19914;-81
2023/11/16 06:24:00;;;;;;;;;;;;;;;;;;4970945;28;19914;-83
2023/11/16 06:26:28;;;;;;;;;;;;;;;;;;4970831;28;19915;-83
2023/11/16 06:28:55;;;;;;;;;;;;;;;;;;4974712;28;19914;-84
2023/11/16 06:31:20;;;;;;;;;;;;;;;;;;4971955;28;19921;-84
2023/11/16 06:33:50;;;;;;;;;;;;;;;;;;4976234;28;19961;-84
2023/11/16 06:36:16;;;;;;;;;;;;;;;;;;4995256;28;19914;-83
2023/11/16 06:38:45;;;;;;;;;;;;;;;;;;4994773;28;19941;-84
2023/11/16 06:41:10;;;;;;;;;;;;;;;;;;4980765;28;19965;-83
2023/11/16 06:43:42;;;;;;;;;;;;;;;;;;4981643;28;19914;-83
2023/11/16 06:46:15;;;;;;;;;;;;;;;;;;4980302;28;19914;-83
2023/11/16 06:48:44;;;;;;;;;;;;;;;;;;4981515;28;19922;-83
2023/11/16 06:51:11;;;;;;;;;;;;;;;;;;4980873;28;19925;-83
2023/11/16 06:53:43;;;;;;;;;;;;;;;;;;4981826;28;19906;-81
2023/11/16 06:56:11;;;;;;;;;;;;;;;;;;4980694;28;19978;-82
2023/11/16 06:58:40;;;;;;;;;;;;;;;;;;4981090;28;19906;-83
2023/11/16 07:01:06;;;;;;;;;;;;;;;;;;4965261;28;19946;-84
2023/11/16 07:03:35;;;;;;;;;;;;;;;;;;4980934;28;19918;-83
2023/11/16 07:06:02;;;;;;;;;;;;;;;;;;4996027;28;19902;-83
2023/11/16 07:08:27;;;;;;;;;;;;;;;;;;4987178;28;19945;-82
2023/11/16 07:10:55;;;;;;;;;;;;;;;;;;5000742;28;19969;-81
2023/11/16 07:13:23;;;;;;;;;;;;;;;;;;4982681;28;19910;-83
2023/11/16 07:15:49;;;;;;;;;;;;;;;;;;4983902;28;19953;-82
2023/11/16 07:18:19;;;;;;;;;;;;;;;;;;4950751;28;19915;-82
2023/11/16 07:20:48;;;;;;;;;;;;;;;;;;4983942;28;20396;-82
2023/11/16 07:23:15;;;;;;;;;;;;;;;;;;4987090;28;19911;-82
2023/11/16 07:25:49;;;;;;;;;;;;;;;;;;4972561;28;19914;-84
2023/11/16 07:28:15;;;;;;;;;;;;;;;;;;4976720;28;19925;-84
2023/11/16 07:30:43;;;;;;;;;;;;;;;;;;4974924;28;19949;-83
2023/11/16 07:33:14;;;;;;;;;;;;;;;;;;4973916;28;20302;-83
2023/11/16 07:35:46;;;;;;;;;;;;;;;;;;4974006;28;19915;-84
2023/11/16 07:38:18;;;;;;;;;;;;;;;;;;4989815;28;19977;-82
2023/11/16 07:40:44;;;;;;;;;;;;;;;;;;4972360;28;20016;-82
2023/11/16 07:43:10;;;;;;;;;;;;;;;;;;4971140;28;20006;-83
2023/11/16 07:45:37;;;;;;;;;;;;;;;;;;4970740;28;19917;-82
2023/11/16 07:48:09;;;;;;;;;;;;;;;;;;4987664;28;19934;-83
2023/11/16 07:50:35;;;;;;;;;;;;;;;;;;4970846;28;19925;-82
2023/11/16 07:53:09;;;;;;;;;;;;;;;;;;4973295;28;19985;-84
2023/11/16 07:55:37;;;;;;;;;;;;;;;;;;4972508;28;19964;-83
2023/11/16 07:58:03;;;;;;;;;;;;;;;;;;4972517;28;19910;-83
2023/11/16 08:00:44;;;;;;;;;;;;;;;;;;4985825;28;20353;-83
2023/11/16 08:05:58;;;;;;;;;;;;;;;;;;4986975;28;19915;-83
2023/11/16 08:08:31;;;;;;;;;;;;;;;;;;4987166;28;19914;-83
2023/11/16 08:11:04;;;;;;;;;;;;;;;;;;5004474;28;19914;-83
2023/11/16 08:13:35;;;;;;;;;;;;;;;;;;4970780;28;19914;-84
2023/11/16 08:16:04;;;;;;;;;;;;;;;;;;4986774;28;19953;-83
2023/11/16 08:18:29;;;;;;;;;;;;;;;;;;4971904;28;19921;-84
2023/11/16 08:20:55;;;;;;;;;;;;;;;;;;4972623;28;19918;-83
2023/11/16 08:23:22;;;;;;;;;;;;;;;;;;4972708;28;19985;-84
2023/11/16 08:25:50;;;;;;;;;;;;;;;;;;4973692;28;19921;-84
2023/11/16 08:28:16;;;;;;;;;;;;;;;;;;4974834;28;19933;-83
2023/11/16 08:30:45;;;;;;;;;;;;;;;;;;4991051;28;19921;-83
2023/11/16 08:33:11;;;;;;;;;;;;;;;;;;4974252;28;19981;-83
2023/11/16 08:35:37;;;;;;;;;;;;;;;;;;4972081;28;19914;-82
2023/11/16 08:38:07;;;;;;;;;;;;;;;;;;4967051;28;19916;-81
2023/11/16 08:40:36;;;;;;;;;;;;;;;;;;4952044;28;19921;-82
2023/11/16 08:43:10;;;;;;;;;;;;;;;;;;4970772;28;19989;-83
2023/11/16 08:45:41;;;;;;;;;;;;;;;;;;4987765;28;19914;-83
2023/11/16 08:48:10;;;;;;;;;;;;;;;;;;4971468;28;19924;-82
2023/11/16 08:50:41;;;;;;;;;;;;;;;;;;4972835;28;19950;-84
2023/11/16 08:53:07;;;;;;;;;;;;;;;;;;4972397;28;19957;-83
2023/11/16 08:55:35;;;;;;;;;;;;;;;;;;4989342;28;20385;-84
2023/11/16 08:58:02;;;;;;;;;;;;;;;;;;4972546;28;19914;-83
2023/11/16 09:00:37;;;;;;;;;;;;;;;;;;4972628;28;19977;-83
2023/11/16 09:03:04;;;;;;;;;;;;;;;;;;4975973;28;19914;-83
2023/11/16 09:05:31;;;;;;;;;;;;;;;;;;4973824;28;19964;-83
2023/11/16 09:08:02;;;;;;;;;;;;;;;;;;4991389;28;19914;-84
2023/11/16 09:10:31;;;;;;;;;;;;;;;;;;4976782;28;19914;-82
2023/11/16 09:13:00;;;;;;;;;;;;;;;;;;4975387;28;19921;-83
2023/11/16 09:15:27;;;;;;;;;;;;;;;;;;4976570;28;19981;-82
2023/11/16 09:17:54;;;;;;;;;;;;;;;;;;4993698;28;19910;-83
2023/11/16 09:20:23;;;;;;;;;;;;;;;;;;4961172;28;20011;-83
2023/11/16 09:22:53;;;;;;;;;;;;;;;;;;4989082;28;19913;-83
2023/11/16 09:25:19;;;;;;;;;;;;;;;;;;4972895;28;19920;-83
2023/11/16 09:27:56;;;;;;;;;;;;;;;;;;4985804;28;19917;-82
2023/11/16 09:30:22;;;;;;;;;;;;;;;;;;4969780;28;19925;-82
2023/11/16 09:32:50;;;;;;;;;;;;;;;;;;4972270;28;19914;-83
2023/11/16 09:35:21;;;;;;;;;;;;;;;;;;4970810;28;19920;-84
2023/11/16 09:37:47;;;;;;;;;;;;;;;;;;4972304;28;19914;-83
2023/11/16 09:40:12;;;;;;;;;;;;;;;;;;4972349;28;19920;-84
2023/11/16 09:42:39;;;;;;;;;;;;;;;;;;4973911;28;19914;-83
2023/11/16 09:45:15;;;;;;;;;;;;;;;;;;4976978;28;19915;-83
2023/11/16 09:47:45;;;;;;;;;;;;;;;;;;4994443;28;19914;-83
2023/11/16 09:50:15;;;;;;;;;;;;;;;;;;4978388;28;19918;-83
2023/11/16 09:52:41;;;;;;;;;;;;;;;;;;4973465;28;20021;-83
2023/11/16 09:55:09;;;;;;;;;;;;;;;;;;4986110;28;19914;-83
2023/11/16 09:57:37;;;;;;;;;;;;;;;;;;4975967;28;19948;-82
2023/11/16 10:00:14;;;;;;;;;;;;;;;;;;4979636;28;19925;-83
2023/11/16 10:02:42;;;;;;;;;;;;;;;;;;4996268;28;19899;-82
2023/11/16 10:05:08;;;;;;;;;;;;;;;;;;4978999;28;19914;-83
2023/11/16 10:07:40;;;;;;;;;;;;;;;;;;4980868;28;19929;-83
2023/11/16 10:10:06;;;;;;;;;;;;;;;;;;4980192;28;19957;-84
2023/11/16 10:12:32;;;;;;;;;;;;;;;;;;4975819;28;20004;-84
2023/11/16 10:14:57;;;;;;;;;;;;;;;;;;4975817;28;19914;-83
2023/11/16 10:17:25;;;;;;;;;;;;;;;;;;4993935;28;19910;-84
2023/11/16 10:19:50;;;;;;;;;;;;;;;;;;4960186;28;19914;-83
2023/11/16 10:22:16;;;;;;;;;;;;;;;;;;4991432;28;19918;-83
2023/11/16 10:24:45;;;;;;;;;;;;;;;;;;4976760;28;19914;-82
2023/11/16 10:27:19;;;;;;;;;;;;;;;;;;4961439;28;19920;-83
2023/11/16 10:29:47;;;;;;;;;;;;;;;;;;4990404;28;20013;-83
2023/11/16 10:32:14;;;;;;;;;;;;;;;;;;4973772;28;19914;-84
2023/11/16 10:34:40;;;;;;;;;;;;;;;;;;4975610;28;19918;-83
2023/11/16 10:37:09;;;;;;;;;;;;;;;;;;4977484;28;19910;-83
2023/11/16 10:39:35;;;;;;;;;;;;;;;;;;4978870;28;19918;-83
2023/11/16 10:42:05;;;;;;;;;;;;;;;;;;4979555;28;20172;-83
2023/11/16 10:44:31;;;;;;;;;;;;;;;;;;4977737;28;19914;-83
2023/11/16 10:46:57;;;;;;;;;;;;;;;;;;4978639;28;19921;-84
2023/11/16 10:49:23;;;;;;;;;;;;;;;;;;4978234;28;19949;-84
2023/11/16 10:51:58;;;;;;;;;;;;;;;;;;4980091;28;19910;-83
2023/11/16 10:54:25;;;;;;;;;;;;;;;;;;4996040;28;20054;-83
2023/11/16 10:56:54;;;;;;;;;;;;;;;;;;4980856;28;19921;-83
2023/11/16 10:59:21;;;;;;;;;;;;;;;;;;4980784;28;19977;-83
2023/11/16 11:01:47;;;;;;;;;;;;;;;;;;4980214;28;19898;-83
2023/11/16 11:04:18;;;;;;;;;;;;;;;;;;4997512;28;19914;-83
2023/11/16 11:06:44;;;;;;;;;;;;;;;;;;4997009;28;19919;-83
2023/11/16 11:09:15;;;;;;;;;;;;;;;;;;4981672;28;19906;-83
2023/11/16 11:11:42;;;;;;;;;;;;;;;;;;4996357;28;20025;-83
2023/11/16 11:14:10;;;;;;;;;;;;;;;;;;4997397;28;19909;-83
2023/11/16 11:16:36;;;;;;;;;;;;;;;;;;4981480;28;19981;-83
2023/11/16 11:19:04;;;;;;;;;;;;;;;;;;4981574;28;19918;-84
2023/11/16 11:21:32;;;;;;;;;;;;;;;;;;4981828;28;19913;-83
2023/11/16 11:24:04;;;;;;;;;;;;;;;;;;4981663;28;19918;-82
2023/11/16 11:26:31;;;;;;;;;;;;;;;;;;4981177;28;19957;-84
2023/11/16 11:29:04;;;;;;;;;;;;;;;;;;4979125;28;19915;-83
2023/11/16 11:31:30;;;;;;;;;;;;;;;;;;4972710;28;19981;-84
2023/11/16 11:33:55;;;;;;;;;;;;;;;;;;4971349;28;19984;-82
2023/11/16 11:36:21;;;;;;;;;;;;;;;;;;4969962;28;19914;-83
2023/11/16 11:38:48;;;;;;;;;;;;;;;;;;4972603;28;19910;-82
2023/11/16 11:41:14;;;;;;;;;;;;;;;;;;4989028;28;19925;-82
2023/11/16 11:43:40;;;;;;;;;;;;;;;;;;4973960;28;20175;-83
2023/11/16 11:46:06;;;;;;;;;;;;;;;;;;4979105;28;19918;-83
2023/11/16 11:48:33;;;;;;;;;;;;;;;;;;4981201;28;19907;-83
2023/11/16 11:50:59;;;;;;;;;;;;;;;;;;4977042;28;19918;-82
2023/11/16 11:53:27;;;;;;;;;;;;;;;;;;4955897;28;19925;-82
2023/11/16 11:55:54;;;;;;;;;;;;;;;;;;4966385;28;19925;-83
2023/11/16 11:58:23;;;;;;;;;;;;;;;;;;4953522;28;19929;-82
2023/11/16 12:00:49;;;;;;;;;;;;;;;;;;4951206;28;19934;-82
2023/11/16 12:03:16;;;;;;;;;;;;;;;;;;4984522;28;20072;-83
2023/11/16 12:05:42;;;;;;;;;;;;;;;;;;4969418;28;20071;-82
2023/11/16 12:08:12;;;;;;;;;;;;;;;;;;4969628;28;19957;-82
2023/11/16 12:10:41;;;;;;;;;;;;;;;;;;4969648;28;19918;-83
2023/11/16 12:13:13;;;;;;;;;;;;;;;;;;4975062;28;19908;-83
2023/11/16 12:15:40;;;;;;;;;;;;;;;;;;4973388;28;19914;-83
2023/11/16 12:18:10;;;;;;;;;;;;;;;;;;4961648;28;19910;-84
2023/11/16 12:20:41;;;;;;;;;;;;;;;;;;4977268;28;19925;-84
2023/11/16 12:23:13;;;;;;;;;;;;;;;;;;4958462;28;19914;-84
2023/11/16 12:25:40;;;;;;;;;;;;;;;;;;4988847;28;19981;-82
2023/11/16 12:28:09;;;;;;;;;;;;;;;;;;4957804;28;19910;-83
2023/11/16 12:30:36;;;;;;;;;;;;;;;;;;4990758;28;19978;-83
2023/11/16 12:33:02;;;;;;;;;;;;;;;;;;4974473;28;19945;-84
2023/11/16 12:35:28;;;;;;;;;;;;;;;;;;4989506;28;19940;-83
2023/11/16 12:38:00;;;;;;;;;;;;;;;;;;4978933;28;19978;-83
2023/11/16 12:40:36;;;;;;;;;;;;;;;;;;4993665;28;19914;-84
2023/11/16 12:43:05;;;;;;;;;;;;;;;;;;4978251;28;19914;-83
2023/11/16 12:45:31;;;;;;;;;;;;;;;;;;4977183;28;19934;-83
2023/11/16 12:47:57;;;;;;;;;;;;;;;;;;4959423;28;19914;-83
2023/11/16 12:50:23;;;;;;;;;;;;;;;;;;4989796;28;19936;-84
2023/11/16 12:52:51;;;;;;;;;;;;;;;;;;4989879;28;19953;-83
2023/11/16 12:55:18;;;;;;;;;;;;;;;;;;4958561;28;19918;-83
2023/11/16 12:57:46;;;;;;;;;;;;;;;;;;4973786;28;19973;-83
2023/11/16 13:00:24;;;;;;;;;;;;;;;;;;4975448;28;19974;-83
2023/11/16 13:02:51;;;;;;;;;;;;;;;;;;4992599;28;19914;-83
2023/11/16 13:05:18;;;;;;;;;;;;;;;;;;4974593;28;19964;-83
2023/11/16 13:07:49;;;;;;;;;;;;;;;;;;4974390;28;20006;-83
2023/11/16 13:10:19;;;;;;;;;;;;;;;;;;4975168;28;19964;-82
2023/11/16 13:12:48;;;;;;;;;;;;;;;;;;4992479;28;19941;-82
2023/11/16 13:15:19;;;;;;;;;;;;;;;;;;4996067;28;19925;-84
2023/11/16 13:17:45;;;;;;;;;;;;;;;;;;4957571;28;19920;-82
2023/11/16 13:20:21;;;;;;;;;;;;;;;;;;4972660;28;19977;-82
2023/11/16 13:22:51;;;;;;;;;;;;;;;;;;4989883;28;19921;-82
2023/11/16 13:25:21;;;;;;;;;;;;;;;;;;4972345;28;19922;-83
2023/11/16 13:27:48;;;;;;;;;;;;;;;;;;4989047;28;19914;-84
2023/11/16 13:30:14;;;;;;;;;;;;;;;;;;4973261;28;19922;-83
2023/11/16 13:32:41;;;;;;;;;;;;;;;;;;4972276;28;19926;-83
2023/11/16 13:35:12;;;;;;;;;;;;;;;;;;4958894;28;19987;-82
2023/11/16 13:37:38;;;;;;;;;;;;;;;;;;4974866;28;19910;-83
2023/11/16 13:40:04;;;;;;;;;;;;;;;;;;4973959;28;19981;-83
2023/11/16 13:42:33;;;;;;;;;;;;;;;;;;4990258;28;20282;-84
2023/11/16 13:44:59;;;;;;;;;;;;;;;;;;4991597;28;19921;-83
2023/11/16 13:47:31;;;;;;;;;;;;;;;;;;4989135;28;19980;-84
2023/11/16 13:50:00;;;;;;;;;;;;;;;;;;4974548;28;19926;-84
2023/11/16 13:52:30;;;;;;;;;;;;;;;;;;4971790;28;19941;-83
2023/11/16 13:55:00;;;;;;;;;;;;;;;;;;4973481;28;19911;-84
2023/11/16 13:57:38;;;;;;;;;;;;;;;;;;4989905;28;19945;-84
2023/11/16 14:06:07;;;;;;;;;;;;;;;;;;4989446;28;19985;-82
2023/11/16 14:08:47;;;;;;;;;;;;;;;;;;5005182;28;20000;-85
2023/11/16 14:11:16;;;;;;;;;;;;;;;;;;4973396;28;19954;-83
2023/11/16 14:13:45;;;;;;;;;;;;;;;;;;4987105;28;19914;-83
2023/11/16 14:16:23;;;;;;;;;;;;;;;;;;4975220;28;19978;-84
2023/11/16 14:18:52;;;;;;;;;;;;;;;;;;4990881;28;19921;-83
2023/11/16 14:21:20;;;;;;;;;;;;;;;;;;4990294;28;19921;-84
2023/11/16 14:23:54;;;;;;;;;;;;;;;;;;4959889;28;19921;-84
2023/11/16 14:26:24;;;;;;;;;;;;;;;;;;4977126;28;19914;-84
2023/11/16 14:28:55;;;;;;;;;;;;;;;;;;4993095;28;19985;-83
2023/11/16 14:33:52;;;;;;;;;;;;;;;;;;4952632;29;20094;-84
2023/11/16 14:36:20;;;;;;;;;;;;;;;;;;4941016;29;19911;-83
2023/11/16 14:38:49;;;;;;;;;;;;;;;;;;4955227;29;19993;-84
2023/11/16 14:41:18;;;;;;;;;;;;;;;;;;4955376;29;19922;-84
2023/11/16 14:43:44;;;;;;;;;;;;;;;;;;4940539;29;19911;-84
2023/11/16 14:46:19;;;;;;;;;;;;;;;;;;4940482;29;19915;-83
2023/11/16 14:48:48;;;;;;;;;;;;;;;;;;4956020;29;19919;-84
2023/11/16 14:51:19;;;;;;;;;;;;;;;;;;4939839;29;20021;-83
2023/11/16 14:53:47;;;;;;;;;;;;;;;;;;4939031;29;19939;-83
2023/11/16 14:59:37;;;;;;;;;;;;;;;;;;4899395;29;19919;-83
2023/11/16 15:02:04;;;;;;;;;;;;;;;;;;4883535;29;19916;-82
2023/11/16 15:04:29;;;;;;;;;;;;;;;;;;4880461;29;19912;-83
2023/11/16 15:06:56;;;;;;;;;;;;;;;;;;4880433;29;19925;-83
2023/11/16 15:09:22;;;;;;;;;;;;;;;;;;4880706;29;19920;-82
2023/11/16 15:11:51;;;;;;;;;;;;;;;;;;4895623;29;19921;-83
2023/11/16 15:14:26;;;;;;;;;;;;;;;;;;4882373;29;19994;-84
2023/11/16 15:17:02;;;;;;;;;;;;;;;;;;4882832;29;19946;-84
2023/11/16 15:19:31;;;;;;;;;;;;;;;;;;4880602;29;19945;-83
2023/11/16 15:22:01;;;;;;;;;;;;;;;;;;4881892;29;19987;-84
2023/11/16 15:24:30;;;;;;;;;;;;;;;;;;4882469;29;19936;-84
2023/11/16 15:26:59;;;;;;;;;;;;;;;;;;4881735;29;19982;-83
2023/11/16 15:29:31;;;;;;;;;;;;;;;;;;4934190;29;20293;-83
2023/11/16 15:31:57;;;;;;;;;;;;;;;;;;4932190;29;19985;-82
2023/11/16 15:34:23;;;;;;;;;;;;;;;;;;4931251;29;19910;-83
2023/11/16 15:36:51;;;;;;;;;;;;;;;;;;4948410;29;19970;-82
2023/11/16 15:39:22;;;;;;;;;;;;;;;;;;4948539;29;20298;-82
2023/11/16 15:41:54;;;;;;;;;;;;;;;;;;4934259;29;19922;-83
2023/11/16 15:44:21;;;;;;;;;;;;;;;;;;4951547;29;19921;-83
2023/11/16 15:46:48;;;;;;;;;;;;;;;;;;4933694;29;19911;-84
2023/11/16 15:49:19;;;;;;;;;;;;;;;;;;4951001;29;19930;-82
2023/11/16 15:51:45;;;;;;;;;;;;;;;;;;4935959;29;19922;-82
2023/11/16 15:54:15;;;;;;;;;;;;;;;;;;4934195;29;19915;-83
2023/11/16 15:56:41;;;;;;;;;;;;;;;;;;4933959;29;19922;-83
2023/11/16 15:59:07;;;;;;;;;;;;;;;;;;4933933;29;20358;-82
2023/11/16 16:01:34;;;;;;;;;;;;;;;;;;4933995;29;19954;-82
2023/11/16 16:04:03;;;;;;;;;;;;;;;;;;4932559;29;19915;-83
2023/11/16 16:06:28;;;;;;;;;;;;;;;;;;4931354;29;19946;-82
2023/11/16 16:09:04;;;;;;;;;;;;;;;;;;4948625;29;19923;-83
2023/11/16 16:11:31;;;;;;;;;;;;;;;;;;4947646;29;19915;-83
2023/11/16 16:13:59;;;;;;;;;;;;;;;;;;4931933;29;19915;-82
2023/11/16 16:16:25;;;;;;;;;;;;;;;;;;4935612;29;19925;-83
2023/11/16 16:18:57;;;;;;;;;;;;;;;;;;4950270;29;19958;-83
2023/11/16 16:21:24;;;;;;;;;;;;;;;;;;4949153;29;19915;-83
2023/11/16 16:23:54;;;;;;;;;;;;;;;;;;4934188;29;19942;-82
2023/11/16 16:26:21;;;;;;;;;;;;;;;;;;4950094;29;19915;-82
2023/11/16 16:28:46;;;;;;;;;;;;;;;;;;4937979;29;20069;-82
2023/11/16 16:31:12;;;;;;;;;;;;;;;;;;4951827;29;19919;-83
2023/11/16 16:33:47;;;;;;;;;;;;;;;;;;4934753;29;19923;-82
2023/11/16 16:36:13;;;;;;;;;;;;;;;;;;4935222;29;19925;-82
2023/11/16 16:38:45;;;;;;;;;;;;;;;;;;4934632;29;19910;-83
2023/11/16 16:41:13;;;;;;;;;;;;;;;;;;4951597;29;19925;-82
2023/11/16 16:43:41;;;;;;;;;;;;;;;;;;4936365;29;20370;-83
2023/11/16 16:46:13;;;;;;;;;;;;;;;;;;4946695;29;19941;-84
2023/11/16 16:48:49;;;;;;;;;;;;;;;;;;4937717;29;20279;-83
2023/11/16 16:51:18;;;;;;;;;;;;;;;;;;4932920;29;19922;-84
2023/11/16 16:54:01;;;;;;;;;;;;;;;;;;4948409;29;20032;-83
2023/11/16 16:56:27;;;;;;;;;;;;;;;;;;4930264;29;19915;-82
2023/11/16 16:58:55;;;;;;;;;;;;;;;;;;4945892;29;19929;-83
2023/11/16 17:01:21;;;;;;;;;;;;;;;;;;4931389;29;20374;-83
2023/11/16 17:03:47;;;;;;;;;;;;;;;;;;4929574;29;19957;-83
2023/11/16 17:06:14;;;;;;;;;;;;;;;;;;4931224;29;19915;-83
2023/11/16 17:08:44;;;;;;;;;;;;;;;;;;4928334;29;20293;-83
2023/11/16 17:11:11;;;;;;;;;;;;;;;;;;4928092;29;19981;-83